Observation data for O'Donnell on 09/12/2017      Previous  Date       Current Mesonet Observations  Soil Data  Daily Summary Page  Observations in Plain Language
KOES 120500Z 12005KT 20/09 A3012 RMK A01 T01950088  RH  052%=      5-min Rain = 0
KOES 120505Z 11006KT 20/09 A3012 RMK A01 T02020086  RH  049%=      5-min Rain = 0
KOES 120510Z 10005KT 21/08 A3012 RMK A01 T02070082  RH  046%=      5-min Rain = 0
KOES 120515Z 09006KT 20/09 A3012 RMK A01 T02010087  RH  049%=      5-min Rain = 0
KOES 120520Z 09006KT 20/09 A3012 RMK A01 T01950089  RH  052%=      5-min Rain = 0
KOES 120525Z 09005KT 19/09 A3012 RMK A01 T01890089  RH  054%=      5-min Rain = 0
KOES 120530Z 10005KT 19/09 A3012 RMK A01 T01880086  RH  053%=      5-min Rain = 0
KOES 120535Z 10005KT 19/08 A3012 RMK A01 T01900083  RH  051%=      5-min Rain = 0
KOES 120540Z 11005KT 20/08 A3012 RMK A01 T01960080  RH  048%=      5-min Rain = 0
KOES 120545Z 12006KT 20/08 A3012 RMK A01 T02010077  RH  046%=      5-min Rain = 0
KOES 120550Z 12006KT 21/08 A3011 RMK A01 T02050076  RH  044%=      5-min Rain = 0
KOES 120555Z 11006KT 20/08 A3011 RMK A01 T02020077  RH  046%=      5-min Rain = 0
KOES 120600Z 10004KT 20/08 A3011 RMK A01 T01980078  RH  047%=      5-min Rain = 0
KOES 120605Z 09004KT 19/08 A3011 RMK A01 T01900080  RH  050%=      5-min Rain = 0
KOES 120610Z 11003KT 18/08 A3011 RMK A01 T01840082  RH  053%=      5-min Rain = 0
KOES 120615Z 11004KT 18/08 A3011 RMK A01 T01840081  RH  052%=      5-min Rain = 0
KOES 120620Z 11005KT 18/08 A3011 RMK A01 T01840081  RH  052%=      5-min Rain = 0
KOES 120625Z 11006KT 19/08 A3011 RMK A01 T01890078  RH  050%=      5-min Rain = 0
KOES 120630Z 11005KT 19/08 A3011 RMK A01 T01900078  RH  049%=      5-min Rain = 0
KOES 120635Z 11005KT 19/08 A3011 RMK A01 T01890077  RH  050%=      5-min Rain = 0
KOES 120640Z 12005KT 19/08 A301 RMK A01 T01900076  RH  049%=      5-min Rain = 0
KOES 120645Z 12005KT 19/08 A301 RMK A01 T01910076  RH  048%=      5-min Rain = 0
KOES 120650Z 12005KT 19/08 A301 RMK A01 T01900077  RH  049%=      5-min Rain = 0
KOES 120655Z 12005KT 19/08 A301 RMK A01 T01890076  RH  049%=      5-min Rain = 0
KOES 120700Z 12004KT 19/08 A301 RMK A01 T01890076  RH  049%=      5-min Rain = 0
KOES 120705Z 13003KT 19/08 A301 RMK A01 T01890077  RH  049%=      5-min Rain = 0
KOES 120710Z 13003KT 19/08 A301 RMK A01 T01870077  RH  050%=      5-min Rain = 0
KOES 120715Z 13003KT 19/08 A301 RMK A01 T01860077  RH  050%=      5-min Rain = 0
KOES 120720Z 13003KT 19/08 A301 RMK A01 T01860077  RH  050%=      5-min Rain = 0
KOES 120725Z 13003KT 19/08 A3009 RMK A01 T01870077  RH  050%=      5-min Rain = 0
KOES 120730Z 15003KT 19/08 A3009 RMK A01 T01870077  RH  050%=      5-min Rain = 0
KOES 120735Z 15003KT 19/08 A3009 RMK A01 T01860077  RH  050%=      5-min Rain = 0
KOES 120740Z 15003KT 19/08 A3009 RMK A01 T01870078  RH  051%=      5-min Rain = 0
KOES 120745Z 14002KT 19/08 A3009 RMK A01 T01870079  RH  051%=      5-min Rain = 0
KOES 120750Z 14003KT 19/08 A3009 RMK A01 T01880079  RH  050%=      5-min Rain = 0
KOES 120755Z 14003KT 19/08 A3009 RMK A01 T01890079  RH  050%=      5-min Rain = 0
KOES 120800Z 14003KT 19/08 A3009 RMK A01 T01890079  RH  050%=      5-min Rain = 0
KOES 120805Z 15003KT 19/08 A3009 RMK A01 T01890079  RH  050%=      5-min Rain = 0
KOES 120810Z 15003KT 19/08 A3009 RMK A01 T01890079  RH  050%=      5-min Rain = 0
KOES 120815Z 16003KT 19/08 A3009 RMK A01 T01880079  RH  051%=      5-min Rain = 0
KOES 120820Z 16002KT 19/08 A3009 RMK A01 T01860078  RH  051%=      5-min Rain = 0
KOES 120825Z 18002KT 19/08 A3009 RMK A01 T01850078  RH  051%=      5-min Rain = 0
KOES 120830Z 18001KT 18/08 A3009 RMK A01 T01840076  RH  051%=      5-min Rain = 0
KOES 120835Z 15001KT 18/08 A3008 RMK A01 T01810077  RH  052%=      5-min Rain = 0
KOES 120840Z 14002KT 18/08 A3008 RMK A01 T01770078  RH  054%=      5-min Rain = 0
KOES 120845Z 13002KT 17/08 A3008 RMK A01 T01710078  RH  056%=      5-min Rain = 0
KOES 120850Z 15002KT 17/08 A3008 RMK A01 T01690078  RH  057%=      5-min Rain = 0
KOES 120855Z 14001KT 17/08 A3008 RMK A01 T01700078  RH  056%=      5-min Rain = 0
KOES 120900Z 13001KT 17/08 A3008 RMK A01 T01710078  RH  056%=      5-min Rain = 0
KOES 120905Z 14001KT 17/08 A3008 RMK A01 T01680078  RH  057%=      5-min Rain = 0
KOES 120910Z 14001KT 17/08 A3008 RMK A01 T01680078  RH  057%=      5-min Rain = 0
KOES 120915Z 12001KT 17/08 A3008 RMK A01 T01680078  RH  057%=      5-min Rain = 0
KOES 120920Z 13001KT 16/08 A3008 RMK A01 T01630078  RH  058%=      5-min Rain = 0
KOES 120925Z 14001KT 16/08 A3008 RMK A01 T01640078  RH  058%=      5-min Rain = 0
KOES 120930Z 14001KT 17/08 A3007 RMK A01 T01660078  RH  058%=      5-min Rain = 0
KOES 120935Z 14001KT 17/08 A3007 RMK A01 T01670078  RH  057%=      5-min Rain = 0
KOES 120940Z 14000KT 17/08 A3007 RMK A01 T01670078  RH  057%=      5-min Rain = 0
KOES 120945Z 00000KT 16/08 A3007 RMK A01 T01640078  RH  058%=      5-min Rain = 0
KOES 120950Z 00000KT 15/08 A3007 RMK A01 T01530079  RH  063%=      5-min Rain = 0
KOES 120955Z 00000KT 15/08 A3007 RMK A01 T01480079  RH  065%=      5-min Rain = 0
KOES 121000Z 28000KT 15/08 A3007 RMK A01 T01470079  RH  065%=      5-min Rain = 0
KOES 121005Z 29000KT 15/08 A3007 RMK A01 T01470079  RH  066%=      5-min Rain = 0
KOES 121010Z 30000KT 15/08 A3007 RMK A01 T01460079  RH  066%=      5-min Rain = 0
KOES 121015Z 29001KT 15/08 A3007 RMK A01 T01460079  RH  066%=      5-min Rain = 0
KOES 121020Z 29001KT 15/08 A3007 RMK A01 T01460078  RH  066%=      5-min Rain = 0
KOES 121025Z 33000KT 15/08 A3007 RMK A01 T01450078  RH  066%=      5-min Rain = 0
KOES 121030Z 34000KT 14/08 A3007 RMK A01 T01430079  RH  067%=      5-min Rain = 0
KOES 121035Z 35001KT 14/08 A3007 RMK A01 T01410079  RH  068%=      5-min Rain = 0
KOES 121040Z 02001KT 14/08 A3007 RMK A01 T01390080  RH  069%=      5-min Rain = 0
KOES 121045Z 03001KT 14/08 A3007 RMK A01 T01370080  RH  070%=      5-min Rain = 0
KOES 121050Z 03001KT 14/08 A3007 RMK A01 T01350080  RH  071%=      5-min Rain = 0
KOES 121055Z 03001KT 13/08 A3007 RMK A01 T01340079  RH  071%=      5-min Rain = 0
KOES 121100Z 02001KT 14/08 A3007 RMK A01 T01350077  RH  070%=      5-min Rain = 0
KOES 121105Z 03001KT 14/08 A3007 RMK A01 T01360077  RH  069%=      5-min Rain = 0
KOES 121110Z 03001KT 14/08 A3007 RMK A01 T01350078  RH  070%=      5-min Rain = 0
KOES 121115Z 03001KT 14/08 A3008 RMK A01 T01350079  RH  071%=      5-min Rain = 0
KOES 121120Z 04001KT 14/08 A3008 RMK A01 T01350081  RH  072%=      5-min Rain = 0
KOES 121125Z 06001KT 14/08 A3007 RMK A01 T01350082  RH  072%=      5-min Rain = 0
KOES 121130Z 00000KT 14/08 A3007 RMK A01 T01350082  RH  072%=      5-min Rain = 0
KOES 121135Z 03000KT 13/08 A3007 RMK A01 T01340081  RH  072%=      5-min Rain = 0
KOES 121140Z 03001KT 13/08 A3007 RMK A01 T01330080  RH  072%=      5-min Rain = 0
KOES 121145Z 03001KT 13/08 A3007 RMK A01 T01330080  RH  072%=      5-min Rain = 0
KOES 121150Z 35001KT 13/08 A3007 RMK A01 T01330080  RH  072%=      5-min Rain = 0
KOES 121155Z 01001KT 13/08 A3007 RMK A01 T01320079  RH  072%=      5-min Rain = 0
KOES 121200Z 02002KT 13/08 A3008 RMK A01 T01300079  RH  073%=      5-min Rain = 0
KOES 121205Z 03002KT 13/08 A3008 RMK A01 T01300079  RH  073%=      5-min Rain = 0
KOES 121210Z 03002KT 13/08 A3008 RMK A01 T01280079  RH  074%=      5-min Rain = 0
KOES 121215Z 04002KT 13/08 A3008 RMK A01 T01270079  RH  074%=      5-min Rain = 0
KOES 121220Z 02002KT 13/08 A3008 RMK A01 T01270079  RH  075%=      5-min Rain = 0
KOES 121225Z 01003KT 13/08 A3008 RMK A01 T01260079  RH  075%=      5-min Rain = 0
KOES 121230Z 01003KT 13/08 A3008 RMK A01 T01270080  RH  075%=      5-min Rain = 0
KOES 121235Z 02002KT 13/08 A3008 RMK A01 T01280081  RH  075%=      5-min Rain = 0
KOES 121240Z 03002KT 13/08 A3008 RMK A01 T01300081  RH  075%=      5-min Rain = 0
KOES 121245Z 02001KT 13/08 A3008 RMK A01 T01320082  RH  074%=      5-min Rain = 0
KOES 121250Z 03001KT 13/08 A3008 RMK A01 T01330082  RH  073%=      5-min Rain = 0
KOES 121255Z 03002KT 14/08 A3008 RMK A01 T01350082  RH  072%=      5-min Rain = 0
KOES 121300Z 03001KT 14/08 A3008 RMK A01 T01380083  RH  071%=      5-min Rain = 0
KOES 121305Z 01001KT 14/08 A3008 RMK A01 T01400084  RH  071%=      5-min Rain = 0
KOES 121310Z 00001KT 14/09 A3008 RMK A01 T01440086  RH  070%=      5-min Rain = 0
KOES 121315Z 35002KT 15/09 A3008 RMK A01 T01480087  RH  069%=      5-min Rain = 0
KOES 121320Z 36001KT 15/09 A3008 RMK A01 T01530088  RH  067%=      5-min Rain = 0
KOES 121325Z 01002KT 16/09 A3008 RMK A01 T01580090  RH  066%=      5-min Rain = 0
KOES 121330Z 35002KT 16/09 A3009 RMK A01 T01620093  RH  065%=      5-min Rain = 0
KOES 121335Z 35001KT 17/09 A3009 RMK A01 T01680093  RH  063%=      5-min Rain = 0
KOES 121340Z 35001KT 17/09 A3009 RMK A01 T01730094  RH  062%=      5-min Rain = 0
KOES 121345Z 34001KT 18/09 A3009 RMK A01 T01770094  RH  060%=      5-min Rain = 0
KOES 121350Z 32000KT 18/09 A3009 RMK A01 T01820094  RH  058%=      5-min Rain = 0
KOES 121355Z 33000KT 19/10 A3009 RMK A01 T01850095  RH  057%=      5-min Rain = 0
KOES 121400Z 35001KT 19/10 A3009 RMK A01 T01880097  RH  057%=      5-min Rain = 0
KOES 121405Z 36001KT 19/10 A3009 RMK A01 T01910096  RH  056%=      5-min Rain = 0
KOES 121410Z 02001KT 19/10 A3009 RMK A01 T01940096  RH  055%=      5-min Rain = 0
KOES 121415Z 30000KT 20/09 A3009 RMK A01 T01960093  RH  053%=      5-min Rain = 0
KOES 121420Z 20001KT 20/09 A3009 RMK A01 T02010088  RH  050%=      5-min Rain = 0
KOES 121425Z 20001KT 21/09 A3009 RMK A01 T02070086  RH  047%=      5-min Rain = 0
KOES 121430Z 21002KT 21/09 A3009 RMK A01 T02090087  RH  047%=      5-min Rain = 0
KOES 121435Z 23001KT 21/09 A3009 RMK A01 T02110086  RH  046%=      5-min Rain = 0
KOES 121440Z 23002KT 21/09 A3009 RMK A01 T02140088  RH  046%=      5-min Rain = 0
KOES 121445Z 23002KT 22/09 A3009 RMK A01 T02180088  RH  045%=      5-min Rain = 0
KOES 121450Z 22002KT 22/09 A3009 RMK A01 T02230088  RH  043%=      5-min Rain = 0
KOES 121455Z 20003KT 23/08 A3009 RMK A01 T02260084  RH  041%=      5-min Rain = 0
KOES 121500Z 21003KT 23/09 A3009 RMK A01 T02280086  RH  042%=      5-min Rain = 0
KOES 121505Z 20002KT 23/09 A3009 RMK A01 T02310086  RH  041%=      5-min Rain = 0
KOES 121510Z 19004KT 23/08 A3009 RMK A01 T02330082  RH  039%=      5-min Rain = 0
KOES 121515Z 20004KT 24/09 A3009 RMK A01 T02370085  RH  039%=      5-min Rain = 0
KOES 121520Z 20004KT 24/09 A3009 RMK A01 T02380087  RH  039%=      5-min Rain = 0
KOES 121525Z 21004KT 24/09 A3009 RMK A01 T02410088  RH  039%=      5-min Rain = 0
KOES 121530Z 21004KT 24/09 A3009 RMK A01 T02420090  RH  039%=      5-min Rain = 0
KOES 121535Z 20003KT 24/09 A3009 RMK A01 T02440093  RH  040%=      5-min Rain = 0
KOES 121540Z 22003KT 25/09 A3009 RMK A01 T02460093  RH  039%=      5-min Rain = 0
KOES 121545Z 22003KT 25/09 A3009 RMK A01 T02490093  RH  038%=      5-min Rain = 0
KOES 121550Z 23002KT 25/09 A3009 RMK A01 T02510093  RH  038%=      5-min Rain = 0
KOES 121555Z 22004KT 25/09 A3009 RMK A01 T02530089  RH  036%=      5-min Rain = 0
KOES 121600Z 23003KT 26/08 A3009 RMK A01 T02570078  RH  033%=      5-min Rain = 0
KOES 121605Z 29003KT 26/08 A3009 RMK A01 T02620080  RH  032%=      5-min Rain = 0
KOES 121610Z 27003KT 27/09 A3009 RMK A01 T02650087  RH  034%=      5-min Rain = 0
KOES 121615Z 28004KT 27/08 A3008 RMK A01 T02650082  RH  032%=      5-min Rain = 0
KOES 121620Z 29004KT 27/08 A3008 RMK A01 T02680082  RH  032%=      5-min Rain = 0
KOES 121625Z 25004KT 27/08 A3008 RMK A01 T02670082  RH  032%=      5-min Rain = 0
KOES 121630Z 26006KT 27/08 A3008 RMK A01 T02730076  RH  030%=      5-min Rain = 0
KOES 121635Z 25005KT 27/08 A3008 RMK A01 T02720076  RH  030%=      5-min Rain = 0
KOES 121640Z 25003KT 27/07 A3008 RMK A01 T02730073  RH  029%=      5-min Rain = 0
KOES 121645Z 29005KT 28/08 A3008 RMK A01 T02780075  RH  029%=      5-min Rain = 0
KOES 121650Z 28003KT 28/08 A3008 RMK A01 T02780076  RH  029%=      5-min Rain = 0
KOES 121655Z 28003KT 28/08 A3008 RMK A01 T02800077  RH  029%=      5-min Rain = 0
KOES 121700Z 27003KT 28/08 A3007 RMK A01 T02830078  RH  028%=      5-min Rain = 0
KOES 121705Z 25003G8KT 29/08 A3007 RMK A01 T02850078  RH  028%=      5-min Rain = 0
KOES 121710Z 28005KT 29/08 A3007 RMK A01 T02890076  RH  027%=      5-min Rain = 0
KOES 121715Z 26004KT 29/08 A3007 RMK A01 T02890075  RH  027%=      5-min Rain = 0
KOES 121720Z 25005KT 29/08 A3007 RMK A01 T02880076  RH  027%=      5-min Rain = 0
KOES 121725Z 29005G10KT 29/08 A3006 RMK A01 T02920078  RH  027%=      5-min Rain = 0
KOES 121730Z 29005KT 29/08 A3006 RMK A01 T02920077  RH  027%=      5-min Rain = 0
KOES 121735Z 26006KT 30/08 A3006 RMK A01 T02950075  RH  026%=      5-min Rain = 0
KOES 121740Z 25004KT 30/08 A3006 RMK A01 T02960075  RH  026%=      5-min Rain = 0
KOES 121745Z 28005KT 30/08 A3005 RMK A01 T02990076  RH  025%=      5-min Rain = 0
KOES 121750Z 27004G9KT 30/07 A3005 RMK A01 T02980072  RH  025%=      5-min Rain = 0
KOES 121755Z 28006KT 30/07 A3005 RMK A01 T03010074  RH  025%=      5-min Rain = 0
KOES 121800Z 27004KT 30/07 A3005 RMK A01 T03040072  RH  024%=      5-min Rain = 0
KOES 121805Z 26006KT 31/07 A3005 RMK A01 T03060073  RH  024%=      5-min Rain = 0
KOES 121810Z 27004G9KT 31/07 A3004 RMK A01 T03080072  RH  023%=      5-min Rain = 0
KOES 121815Z 27004KT 31/07 A3004 RMK A01 T03100074  RH  023%=      5-min Rain = 0
KOES 121820Z 27005G10KT 31/07 A3004 RMK A01 T03070073  RH  024%=      5-min Rain = 0
KOES 121825Z 27006KT 31/07 A3004 RMK A01 T03090070  RH  023%=      5-min Rain = 0
KOES 121830Z 31004KT 31/07 A3003 RMK A01 T03080074  RH  024%=      5-min Rain = 0
KOES 121835Z 29005KT 31/07 A3003 RMK A01 T03100072  RH  023%=      5-min Rain = 0
KOES 121840Z 27004KT 31/07 A3003 RMK A01 T03120072  RH  023%=      5-min Rain = 0
KOES 121845Z 30008KT 32/07 A3003 RMK A01 T03150072  RH  022%=      5-min Rain = 0
KOES 121850Z 31003KT 31/07 A3002 RMK A01 T03140071  RH  023%=      5-min Rain = 0
KOES 121855Z 26004KT 32/07 A3002 RMK A01 T03160070  RH  022%=      5-min Rain = 0
KOES 121900Z 30006KT 32/07 A3002 RMK A01 T03190070  RH  022%=      5-min Rain = 0
KOES 121905Z 32006KT 32/07 A3002 RMK A01 T03200073  RH  022%=      5-min Rain = 0
KOES 121910Z 31004KT 32/07 A3001 RMK A01 T03210070  RH  021%=      5-min Rain = 0
KOES 121915Z 36003KT 32/07 A3001 RMK A01 T03210070  RH  021%=      5-min Rain = 0
KOES 121920Z 29004G9KT 32/07 A30 RMK A01 T03230068  RH  021%=      5-min Rain = 0
KOES 121925Z 26006KT 33/07 A30 RMK A01 T03270066  RH  020%=      5-min Rain = 0
KOES 121930Z 30006G11KT 33/07 A30 RMK A01 T03290067  RH  020%=      5-min Rain = 0
KOES 121935Z 32005G10KT 33/07 A30 RMK A01 T03260068  RH  021%=      5-min Rain = 0
KOES 121940Z 34004G10KT 33/07 A2999 RMK A01 T03270066  RH  020%=      5-min Rain = 0
KOES 121945Z 34007KT 33/07 A2999 RMK A01 T03250069  RH  021%=      5-min Rain = 0
KOES 121950Z 32004KT 33/07 A2999 RMK A01 T03250068  RH  021%=      5-min Rain = 0
KOES 121955Z 30006KT 33/06 A2999 RMK A01 T03270064  RH  020%=      5-min Rain = 0
KOES 122000Z 30005G10KT 33/06 A2998 RMK A01 T03300061  RH  019%=      5-min Rain = 0
KOES 122005Z 29004KT 33/06 A2998 RMK A01 T03320060  RH  019%=      5-min Rain = 0
KOES 122010Z 31004KT 33/07 A2998 RMK A01 T03330066  RH  019%=      5-min Rain = 0
KOES 122015Z 29005KT 34/07 A2998 RMK A01 T03360065  RH  019%=      5-min Rain = 0
KOES 122020Z 32008G16KT 34/07 A2997 RMK A01 T03380065  RH  019%=      5-min Rain = 0
KOES 122025Z 30005G10KT 34/06 A2997 RMK A01 T03350064  RH  019%=      5-min Rain = 0
KOES 122030Z 31004G10KT 33/06 A2997 RMK A01 T03340062  RH  019%=      5-min Rain = 0
KOES 122035Z 28006KT 34/06 A2996 RMK A01 T03370062  RH  018%=      5-min Rain = 0
KOES 122040Z 34006KT 34/07 A2996 RMK A01 T03390065  RH  019%=      5-min Rain = 0
KOES 122045Z 28008G13KT 34/06 A2996 RMK A01 T03380061  RH  018%=      5-min Rain = 0
KOES 122050Z 23004KT 34/05 A2996 RMK A01 T03380054  RH  017%=      5-min Rain = 0
KOES 122055Z 22004KT 34/06 A2995 RMK A01 T03400055  RH  017%=      5-min Rain = 0
KOES 122100Z 30002KT 34/06 A2995 RMK A01 T03410056  RH  017%=      5-min Rain = 0
KOES 122105Z 27003KT 35/05 A2995 RMK A01 T03450054  RH  017%=      5-min Rain = 0
KOES 122110Z 29004G9KT 34/06 A2995 RMK A01 T03420056  RH  017%=      5-min Rain = 0
KOES 122115Z 31003G8KT 34/06 A2994 RMK A01 T03410056  RH  017%=      5-min Rain = 0
KOES 122120Z 03001KT 34/05 A2994 RMK A01 T03430051  RH  017%=      5-min Rain = 0
KOES 122125Z 34003KT 34/06 A2994 RMK A01 T03440056  RH  017%=      5-min Rain = 0
KOES 122130Z 33002G7KT 34/05 A2994 RMK A01 T03400054  RH  017%=      5-min Rain = 0
KOES 122135Z 32004G9KT 34/05 A2993 RMK A01 T03420052  RH  017%=      5-min Rain = 0
KOES 122140Z 00005KT 34/05 A2993 RMK A01 T03410053  RH  017%=      5-min Rain = 0
KOES 122145Z 35005KT 34/05 A2993 RMK A01 T03400054  RH  017%=      5-min Rain = 0
KOES 122150Z 34005G12KT 34/05 A2993 RMK A01 T03410054  RH  017%=      5-min Rain = 0
KOES 122155Z 34007KT 34/06 A2993 RMK A01 T03390058  RH  018%=      5-min Rain = 0
KOES 122200Z 36007KT 34/06 A2993 RMK A01 T03370055  RH  018%=      5-min Rain = 0
KOES 122205Z 36007KT 34/06 A2993 RMK A01 T03370055  RH  018%=      5-min Rain = 0
KOES 122210Z 35005KT 34/06 A2993 RMK A01 T03370056  RH  018%=      5-min Rain = 0
KOES 122215Z 35009KT 34/06 A2993 RMK A01 T03390056  RH  018%=      5-min Rain = 0
KOES 122220Z 34007G13KT 34/05 A2993 RMK A01 T03370052  RH  017%=      5-min Rain = 0
KOES 122225Z 03005KT 34/06 A2992 RMK A01 T03380057  RH  018%=      5-min Rain = 0
KOES 122230Z 34004KT 34/06 A2992 RMK A01 T03390057  RH  018%=      5-min Rain = 0
KOES 122235Z 32004KT 34/06 A2992 RMK A01 T03400056  RH  017%=      5-min Rain = 0
KOES 122240Z 35004KT 34/05 A2992 RMK A01 T03410050  RH  017%=      5-min Rain = 0
KOES 122245Z 34007KT 34/05 A2992 RMK A01 T03390052  RH  017%=      5-min Rain = 0
KOES 122250Z 33005KT 33/05 A2992 RMK A01 T03340051  RH  018%=      5-min Rain = 0
KOES 122255Z 31005KT 34/05 A2992 RMK A01 T03380053  RH  017%=      5-min Rain = 0
KOES 122300Z 02005KT 33/05 A2992 RMK A01 T03340054  RH  018%=      5-min Rain = 0
KOES 122305Z 34005G10KT 34/06 A2992 RMK A01 T03350057  RH  018%=      5-min Rain = 0
KOES 122310Z 32004KT 34/06 A2991 RMK A01 T03360059  RH  018%=      5-min Rain = 0
KOES 122315Z 34005KT 34/06 A2991 RMK A01 T03350055  RH  018%=      5-min Rain = 0
KOES 122320Z 36004KT 33/05 A2991 RMK A01 T03340051  RH  018%=      5-min Rain = 0
KOES 122325Z 04003KT 34/06 A2991 RMK A01 T03350059  RH  018%=      5-min Rain = 0
KOES 122330Z 06004KT 33/05 A2991 RMK A01 T03330054  RH  018%=      5-min Rain = 0
KOES 122335Z 05004KT 33/06 A2991 RMK A01 T03310063  RH  019%=      5-min Rain = 0
KOES 122340Z 05005KT 33/06 A2991 RMK A01 T03290059  RH  019%=      5-min Rain = 0
KOES 122345Z 07005KT 33/06 A2991 RMK A01 T03280058  RH  019%=      5-min Rain = 0
KOES 122350Z 10006KT 33/06 A299 RMK A01 T03270057  RH  019%=      5-min Rain = 0
KOES 122355Z 09005KT 32/07 A299 RMK A01 T03240067  RH  021%=      5-min Rain = 0
KOES 130000Z 09004KT 33/06 A299 RMK A01 T03250058  RH  019%=      5-min Rain = 0
KOES 130005Z 08004KT 32/07 A299 RMK A01 T03230068  RH  021%=      5-min Rain = 0
KOES 130010Z 09005KT 32/07 A299 RMK A01 T03210066  RH  021%=      5-min Rain = 0
KOES 130015Z 10005KT 32/07 A299 RMK A01 T03180065  RH  021%=      5-min Rain = 0
KOES 130020Z 09005KT 31/06 A299 RMK A01 T03140064  RH  021%=      5-min Rain = 0
KOES 130025Z 09005KT 31/06 A299 RMK A01 T03130059  RH  021%=      5-min Rain = 0
KOES 130030Z 08004KT 31/07 A299 RMK A01 T03110069  RH  023%=      5-min Rain = 0
KOES 130035Z 08005KT 30/08 A299 RMK A01 T03030075  RH  025%=      5-min Rain = 0
KOES 130040Z 08005KT 30/08 A299 RMK A01 T02960079  RH  026%=      5-min Rain = 0
KOES 130045Z 09004KT 30/08 A299 RMK A01 T02960075  RH  026%=      5-min Rain = 0
KOES 130050Z 09004KT 30/08 A299 RMK A01 T02960075  RH  026%=      5-min Rain = 0
KOES 130055Z 09004KT 29/08 A2989 RMK A01 T02910077  RH  027%=      5-min Rain = 0
KOES 130100Z 09004KT 29/07 A2989 RMK A01 T02860074  RH  027%=      5-min Rain = 0
KOES 130105Z 10004KT 29/07 A2989 RMK A01 T02880071  RH  026%=      5-min Rain = 0
KOES 130110Z 09003KT 28/08 A299 RMK A01 T02820081  RH  029%=      5-min Rain = 0
KOES 130115Z 10003KT 27/08 A299 RMK A01 T02740083  RH  031%=      5-min Rain = 0
KOES 130120Z 10002KT 27/08 A299 RMK A01 T02700079  RH  031%=      5-min Rain = 0
KOES 130125Z 13002KT 27/08 A299 RMK A01 T02690076  RH  030%=      5-min Rain = 0
KOES 130130Z 14003KT 27/08 A299 RMK A01 T02680076  RH  030%=      5-min Rain = 0
KOES 130135Z 15003KT 27/08 A299 RMK A01 T02670078  RH  031%=      5-min Rain = 0
KOES 130140Z 15003KT 27/08 A299 RMK A01 T02660077  RH  031%=      5-min Rain = 0
KOES 130145Z 16003KT 27/07 A299 RMK A01 T02650074  RH  031%=      5-min Rain = 0
KOES 130150Z 16003KT 26/07 A299 RMK A01 T02640074  RH  031%=      5-min Rain = 0
KOES 130155Z 15003KT 26/07 A2991 RMK A01 T02620073  RH  031%=      5-min Rain = 0
KOES 130200Z 13003KT 26/07 A2991 RMK A01 T02600072  RH  031%=      5-min Rain = 0
KOES 130205Z 13003KT 26/07 A2991 RMK A01 T02590072  RH  031%=      5-min Rain = 0
KOES 130210Z 13003KT 26/07 A2991 RMK A01 T02590073  RH  031%=      5-min Rain = 0
KOES 130215Z 13003KT 26/08 A2991 RMK A01 T02610075  RH  032%=      5-min Rain = 0
KOES 130220Z 13003KT 26/08 A2991 RMK A01 T02600075  RH  032%=      5-min Rain = 0
KOES 130225Z 13003KT 26/07 A2992 RMK A01 T02590074  RH  032%=      5-min Rain = 0
KOES 130230Z 12003KT 26/07 A2992 RMK A01 T02590074  RH  032%=      5-min Rain = 0
KOES 130235Z 10003KT 26/07 A2992 RMK A01 T02570073  RH  032%=      5-min Rain = 0
KOES 130240Z 10003KT 25/07 A2992 RMK A01 T02530073  RH  032%=      5-min Rain = 0
KOES 130245Z 09004KT 25/08 A2992 RMK A01 T02450080  RH  036%=      5-min Rain = 0
KOES 130250Z 10005KT 24/08 A2992 RMK A01 T02360081  RH  038%=      5-min Rain = 0
KOES 130255Z 09005KT 23/08 A2992 RMK A01 T02340078  RH  038%=      5-min Rain = 0
KOES 130300Z 10007KT 25/07 A2992 RMK A01 T02480070  RH  033%=      5-min Rain = 0
KOES 130305Z 11008KT 26/07 A2993 RMK A01 T02580073  RH  032%=      5-min Rain = 0
KOES 130310Z 12007KT 25/07 A2993 RMK A01 T02530072  RH  032%=      5-min Rain = 0
KOES 130315Z 12006KT 25/07 A2993 RMK A01 T02490071  RH  033%=      5-min Rain = 0
KOES 130320Z 13006KT 25/07 A2993 RMK A01 T02470071  RH  033%=      5-min Rain = 0
KOES 130325Z 13006KT 25/08 A2993 RMK A01 T02460075  RH  034%=      5-min Rain = 0
KOES 130330Z 11005KT 24/08 A2993 RMK A01 T02420078  RH  036%=      5-min Rain = 0
KOES 130335Z 10005KT 24/08 A2994 RMK A01 T02380078  RH  037%=      5-min Rain = 0
KOES 130340Z 10003KT 24/08 A2994 RMK A01 T02350075  RH  037%=      5-min Rain = 0
KOES 130345Z 10004KT 23/08 A2994 RMK A01 T02300076  RH  038%=      5-min Rain = 0
KOES 130350Z 09004KT 22/08 A2994 RMK A01 T02220083  RH  042%=      5-min Rain = 0
KOES 130355Z 10004KT 22/09 A2994 RMK A01 T02160088  RH  045%=      5-min Rain = 0
KOES 130400Z 10004KT 22/09 A2994 RMK A01 T02160087  RH  045%=      5-min Rain = 0
KOES 130405Z 10004KT 22/09 A2994 RMK A01 T02190087  RH  044%=      5-min Rain = 0
KOES 130410Z 10004KT 22/09 A2994 RMK A01 T02200088  RH  044%=      5-min Rain = 0
KOES 130415Z 08004KT 22/09 A2994 RMK A01 T02150088  RH  046%=      5-min Rain = 0
KOES 130420Z 09005KT 21/09 A2994 RMK A01 T02060089  RH  048%=      5-min Rain = 0
KOES 130425Z 08005KT 21/09 A2994 RMK A01 T02070087  RH  048%=      5-min Rain = 0
KOES 130430Z 09006KT 21/09 A2994 RMK A01 T02070088  RH  048%=      5-min Rain = 0
KOES 130435Z 09006KT 21/09 A2994 RMK A01 T02100088  RH  047%=      5-min Rain = 0
KOES 130440Z 09006KT 21/09 A2994 RMK A01 T02110089  RH  047%=      5-min Rain = 0
KOES 130445Z 08006KT 21/09 A2994 RMK A01 T02070090  RH  048%=      5-min Rain = 0
KOES 130450Z 08006KT 20/09 A2994 RMK A01 T02030092  RH  050%=      5-min Rain = 0
KOES 130455Z 08006KT 20/09 A2994 RMK A01 T02010092  RH  051%=      5-min Rain = 0

Page generated in 0.009 seconds.